Time;durP1;ratioP1;P1;durP2;ratioP2;P2;SDS_P1;SDS_P2;PMS_P1;PMS_P2;Temp;Humidity;BMP_temperature;BMP_pressure;BME280_temperature;BME280_humidity;BME280_pressure;Samples;Min_cycle;Max_cycle;Signal;HPM_P1;HPM_P2
2021/09/12 00:02:15;;;;;;;11.50;6.07;;;;;;;15.73;57.33;100345.16;5033277;28;20077;-60
2021/09/12 00:04:41;;;;;;;11.98;5.30;;;;;;;15.72;57.23;100345.59;5028258;28;20151;-57
2021/09/12 00:07:06;;;;;;;13.60;5.60;;;;;;;15.70;57.06;100348.06;5036666;28;20078;-60
2021/09/12 00:09:32;;;;;;;10.73;5.65;;;;;;;15.68;57.40;100345.69;5037731;28;20405;-60
2021/09/12 00:11:58;;;;;;;16.98;6.40;;;;;;;15.64;57.51;100347.78;5038243;28;20021;-60
2021/09/12 00:14:24;;;;;;;14.07;5.55;;;;;;;15.62;57.21;100347.44;5037555;28;20025;-60
2021/09/12 00:16:49;;;;;;;12.23;5.30;;;;;;;15.60;57.42;100344.22;5037736;28;20044;-60
2021/09/12 00:19:14;;;;;;;13.93;5.63;;;;;;;15.58;57.65;100337.34;5037805;28;20044;-60
2021/09/12 00:21:40;;;;;;;10.50;5.70;;;;;;;15.57;57.50;100344.25;5037452;28;20041;-60
2021/09/12 00:24:05;;;;;;;12.15;6.32;;;;;;;15.55;57.79;100343.91;5037966;28;20017;-60
2021/09/12 00:26:31;;;;;;;7.85;5.88;;;;;;;15.54;57.49;100345.16;5037430;28;20033;-60
2021/09/12 00:28:56;;;;;;;15.48;6.25;;;;;;;15.53;57.24;100350.00;5037736;28;20038;-60
2021/09/12 00:31:21;;;;;;;10.95;5.57;;;;;;;15.51;57.12;100346.81;5036898;28;20048;-60
2021/09/12 00:33:47;;;;;;;11.35;6.22;;;;;;;15.52;57.24;100348.41;5037443;28;20061;-60
2021/09/12 00:36:12;;;;;;;8.82;5.80;;;;;;;15.52;57.37;100342.75;5037492;28;20356;-61
2021/09/12 00:38:38;;;;;;;14.20;6.20;;;;;;;15.50;57.68;100350.88;5037094;28;20022;-61
2021/09/12 00:41:03;;;;;;;13.00;6.30;;;;;;;15.48;57.78;100352.56;5035196;28;20017;-60
2021/09/12 00:43:28;;;;;;;11.70;5.65;;;;;;;15.46;57.84;100342.47;5037111;28;20060;-60
2021/09/12 00:45:55;;;;;;;11.35;5.70;;;;;;;15.44;57.99;100349.81;5036820;28;20039;-60
2021/09/12 00:48:22;;;;;;;11.60;6.40;;;;;;;15.41;58.19;100339.34;5036959;28;20030;-60
2021/09/12 00:50:49;;;;;;;13.10;6.60;;;;;;;15.38;58.37;100351.56;5037049;28;20479;-60
2021/09/12 00:53:16;;;;;;;10.15;6.10;;;;;;;15.36;58.05;100345.53;5035946;28;20101;-60
2021/09/12 00:55:45;;;;;;;10.82;6.18;;;;;;;15.35;58.62;100356.06;5037056;28;20029;-60
2021/09/12 00:58:14;;;;;;;10.63;6.10;;;;;;;15.33;58.34;100352.06;5037010;28;20025;-60
2021/09/12 01:00:42;;;;;;;9.43;5.97;;;;;;;15.30;58.90;100348.06;5036678;28;20424;-60
2021/09/12 01:03:08;;;;;;;15.00;6.20;;;;;;;15.27;58.98;100342.47;5037111;28;20067;-60
2021/09/12 01:05:33;;;;;;;12.98;7.05;;;;;;;15.24;58.84;100340.53;5036194;28;20025;-60
2021/09/12 01:07:58;;;;;;;12.35;6.22;;;;;;;15.21;59.47;100345.03;5036583;28;20029;-61
2021/09/12 01:10:24;;;;;;;16.30;6.05;;;;;;;15.20;58.99;100348.28;5036663;28;20376;-61
2021/09/12 01:12:49;;;;;;;12.52;6.10;;;;;;;15.15;58.90;100341.13;5036504;28;20057;-60
2021/09/12 01:15:14;;;;;;;11.30;5.82;;;;;;;15.10;59.12;100333.94;5036381;28;20076;-60
2021/09/12 01:17:40;;;;;;;9.50;6.57;;;;;;;15.04;59.39;100332.81;5035663;28;20033;-60
2021/09/12 01:20:06;;;;;;;10.32;5.57;;;;;;;15.00;59.85;100334.91;5036427;28;20105;-60
2021/09/12 01:22:33;;;;;;;10.18;6.05;;;;;;;14.95;60.15;100321.28;5036256;28;20074;-60
2021/09/12 01:24:59;;;;;;;10.68;5.82;;;;;;;14.92;60.52;100327.00;5036299;28;20419;-60
2021/09/12 01:27:24;;;;;;;13.75;6.45;;;;;;;14.87;60.37;100321.88;5036560;28;20104;-60
2021/09/12 01:29:50;;;;;;;10.90;6.50;;;;;;;14.83;60.74;100334.06;5035953;28;20029;-60
2021/09/12 01:32:15;;;;;;;13.32;6.47;;;;;;;14.82;60.88;100335.28;5035957;28;20080;-60
2021/09/12 01:34:40;;;;;;;11.02;6.03;;;;;;;14.79;60.25;100341.81;5036413;28;20021;-60
2021/09/12 01:37:06;;;;;;;13.85;6.30;;;;;;;14.78;60.92;100339.38;5036269;28;20026;-61
2021/09/12 01:39:31;;;;;;;11.85;6.38;;;;;;;14.76;60.89;100333.38;5036056;28;20021;-61
2021/09/12 01:41:56;;;;;;;13.55;6.47;;;;;;;14.73;61.68;100337.88;5036087;28;20036;-60
2021/09/12 01:44:25;;;;;;;9.98;6.63;;;;;;;14.71;61.07;100331.03;5035826;28;20113;-60
2021/09/12 01:46:55;;;;;;;10.50;6.05;;;;;;;14.69;60.91;100334.31;5035917;28;20021;-60
2021/09/12 01:49:21;;;;;;;13.70;6.18;;;;;;;14.67;61.56;100338.81;5035871;28;20018;-60
2021/09/12 01:51:46;;;;;;;12.25;6.25;;;;;;;14.65;61.34;100338.44;5036450;28;20397;-60
2021/09/12 01:54:12;;;;;;;10.18;6.10;;;;;;;14.64;61.06;100336.84;5032563;28;20033;-60
2021/09/12 01:56:37;;;;;;;8.20;6.10;;;;;;;14.63;60.72;100333.22;5035292;28;20029;-60
2021/09/12 01:59:03;;;;;;;13.98;6.38;;;;;;;14.65;60.66;100336.41;5035558;28;20031;-60
2021/09/12 02:01:28;;;;;;;20.08;7.15;;;;;;;14.68;60.99;100343.22;5035771;28;20208;-65
2021/09/12 02:03:53;;;;;;;10.98;5.95;;;;;;;14.68;60.82;100346.84;5035777;28;20112;-60
2021/09/12 02:06:19;;;;;;;17.67;6.97;;;;;;;14.65;60.50;100347.72;5035558;28;20061;-65
2021/09/12 02:08:44;;;;;;;17.15;8.23;;;;;;;14.64;60.66;100343.28;5035868;28;20113;-58
2021/09/12 02:11:11;;;;;;;16.63;8.07;;;;;;;14.63;60.94;100340.91;5035437;28;20010;-60
2021/09/12 02:13:37;;;;;;;23.25;8.02;;;;;;;14.61;61.39;100340.53;5035555;28;20029;-60
2021/09/12 02:16:02;;;;;;;15.43;8.00;;;;;;;14.57;61.14;100343.44;5035530;28;20044;-65
2021/09/12 02:18:28;;;;;;;21.83;7.93;;;;;;;14.53;61.29;100339.88;5035376;28;20021;-60
2021/09/12 02:20:53;;;;;;;21.05;7.95;;;;;;;14.51;61.14;100333.81;5035527;28;20033;-60
2021/09/12 02:23:18;;;;;;;15.00;7.63;;;;;;;14.47;61.53;100339.53;5035405;28;20024;-60
2021/09/12 02:25:44;;;;;;;15.25;7.20;;;;;;;14.45;62.21;100338.38;5035578;28;20075;-55
2021/09/12 02:28:09;;;;;;;20.90;8.02;;;;;;;14.44;61.64;100346.06;5035046;28;20036;-60
2021/09/12 02:30:34;;;;;;;18.15;7.82;;;;;;;14.43;62.19;100338.81;5035592;28;20025;-61
2021/09/12 02:33:00;;;;;;;16.02;7.32;;;;;;;14.42;61.73;100342.03;5034104;28;20441;-60
2021/09/12 02:35:25;;;;;;;14.25;7.78;;;;;;;14.37;62.36;100334.84;5035266;28;20428;-61
2021/09/12 02:37:50;;;;;;;14.48;8.50;;;;;;;14.30;62.76;100340.63;5035541;28;20025;-61
2021/09/12 02:40:16;;;;;;;16.13;7.13;;;;;;;14.26;62.75;100341.94;5035167;28;20025;-61
2021/09/12 02:42:42;;;;;;;20.85;7.47;;;;;;;14.22;62.42;100342.75;5034981;28;20026;-60
2021/09/12 02:45:09;;;;;;;20.17;7.80;;;;;;;14.20;63.07;100338.75;5035343;28;20413;-60
2021/09/12 02:47:35;;;;;;;17.35;7.93;;;;;;;14.15;62.96;100336.44;5035329;28;20029;-60
2021/09/12 02:50:01;;;;;;;13.85;7.97;;;;;;;14.09;63.19;100338.94;5034104;28;20029;-60
2021/09/12 02:52:26;;;;;;;16.15;8.40;;;;;;;14.04;63.13;100338.63;5035068;28;20128;-60
2021/09/12 02:54:51;;;;;;;15.13;7.43;;;;;;;13.98;63.48;100343.19;5035580;28;20025;-61
2021/09/12 02:57:17;;;;;;;11.93;7.88;;;;;;;13.93;63.46;100342.41;5034786;28;20449;-61
2021/09/12 02:59:42;;;;;;;19.98;7.57;;;;;;;13.91;63.78;100344.88;5035148;28;20025;-61
2021/09/12 03:02:07;;;;;;;13.70;7.30;;;;;;;13.90;63.62;100346.09;5035294;28;20025;-61
2021/09/12 03:04:33;;;;;;;24.05;8.90;;;;;;;13.89;63.92;100346.53;5034994;28;20080;-60
2021/09/12 03:06:58;;;;;;;18.13;7.95;;;;;;;13.90;64.37;100350.94;5035056;28;20155;-60
2021/09/12 03:09:23;;;;;;;17.88;8.20;;;;;;;13.92;64.45;100346.47;5034978;28;20021;-60
2021/09/12 03:11:51;;;;;;;14.82;7.63;;;;;;;13.88;63.74;100351.38;5035108;28;20033;-61
2021/09/12 03:14:17;;;;;;;17.88;8.63;;;;;;;13.85;64.47;100352.22;5034911;28;20026;-61
2021/09/12 03:16:43;;;;;;;18.25;8.10;;;;;;;13.84;63.83;100350.63;5035141;28;20317;-61
2021/09/12 03:19:08;;;;;;;14.63;8.85;;;;;;;13.82;64.13;100347.44;5035074;28;20030;-61
2021/09/12 03:21:34;;;;;;;15.27;8.13;;;;;;;13.81;64.28;100345.84;5034647;28;20037;-61
2021/09/12 03:23:59;;;;;;;19.60;8.55;;;;;;;13.81;64.05;100340.19;5034968;28;20034;-60
2021/09/12 03:26:24;;;;;;;15.73;8.00;;;;;;;13.79;64.46;100348.28;5034584;28;20049;-60
2021/09/12 03:28:49;;;;;;;16.70;8.60;;;;;;;13.75;63.75;100343.91;5036229;28;20108;-60
2021/09/12 03:31:15;;;;;;;21.73;9.80;;;;;;;13.73;64.48;100350.00;5038095;28;20069;-61
2021/09/12 03:33:40;;;;;;;19.13;9.48;;;;;;;13.73;65.48;100349.19;5038968;28;20108;-61
2021/09/12 03:36:06;;;;;;;25.42;9.30;;;;;;;13.72;64.61;100345.56;5038660;28;20025;-61
2021/09/12 03:38:31;;;;;;;40.33;10.98;;;;;;;13.72;64.20;100347.59;5037158;28;20022;-66
2021/09/12 03:40:57;;;;;;;18.60;8.05;;;;;;;13.73;64.31;100350.00;5038328;28;20035;-61
2021/09/12 03:43:22;;;;;;;22.80;8.98;;;;;;;13.73;64.70;100355.66;5038136;28;20075;-61
2021/09/12 03:45:48;;;;;;;24.73;8.65;;;;;;;13.70;65.03;100355.69;5038402;28;20037;-60
2021/09/12 03:48:13;;;;;;;22.35;8.73;;;;;;;13.68;65.05;100353.28;5038263;28;20025;-61
2021/09/12 03:50:38;;;;;;;24.33;8.23;;;;;;;13.64;64.59;100361.00;5038095;28;20824;-60
2021/09/12 03:53:04;;;;;;;19.13;8.45;;;;;;;13.58;64.89;100359.88;5038430;28;20483;-61
2021/09/12 03:55:29;;;;;;;20.17;8.63;;;;;;;13.52;64.69;100356.72;5037631;28;20412;-60
2021/09/12 03:57:54;;;;;;;15.15;8.05;;;;;;;13.48;65.69;100358.00;5038338;28;20033;-61
2021/09/12 04:00:20;;;;;;;14.93;7.75;;;;;;;13.46;65.88;100357.63;5038333;28;20025;-61
2021/09/12 04:02:45;;;;;;;19.88;8.90;;;;;;;13.47;65.00;100362.06;5037801;28;20051;-61
2021/09/12 04:05:11;;;;;;;19.65;8.43;;;;;;;13.49;64.85;100373.72;5038125;28;20344;-61
2021/09/12 04:07:37;;;;;;;16.85;8.10;;;;;;;13.46;64.75;100371.75;5037793;28;20037;-61
2021/09/12 04:10:04;;;;;;;16.17;7.97;;;;;;;13.43;65.33;100369.78;5037724;28;20032;-60
2021/09/12 04:12:30;;;;;;;13.60;8.07;;;;;;;13.43;65.48;100366.97;5037675;28;20033;-60
2021/09/12 04:14:55;;;;;;;19.92;7.90;;;;;;;13.39;65.69;100369.00;5037997;28;20018;-60
2021/09/12 04:17:20;;;;;;;16.50;8.93;;;;;;;13.33;65.76;100370.69;5037691;28;20025;-60
2021/09/12 04:19:46;;;;;;;19.98;9.02;;;;;;;13.26;66.14;100369.56;5037610;28;20029;-60
2021/09/12 04:22:11;;;;;;;16.80;8.82;;;;;;;13.22;66.36;100368.00;5037717;28;20079;-60
2021/09/12 04:24:37;;;;;;;17.70;8.18;;;;;;;13.21;66.03;100369.22;5037314;28;20040;-60
2021/09/12 04:27:03;;;;;;;12.73;8.10;;;;;;;13.23;66.37;100370.41;5037590;28;20104;-60
2021/09/12 04:29:28;;;;;;;13.88;8.30;;;;;;;13.24;66.84;100374.84;5037427;28;20048;-60
2021/09/12 04:31:53;;;;;;;16.00;9.38;;;;;;;13.25;66.55;100370.78;5007458;28;20037;-60
2021/09/12 04:34:19;;;;;;;15.80;9.05;;;;;;;13.22;66.35;100366.00;5037279;28;20120;-60
2021/09/12 04:36:44;;;;;;;20.92;8.85;;;;;;;13.21;66.45;100375.69;5037418;28;20037;-60
2021/09/12 04:39:10;;;;;;;22.98;8.32;;;;;;;13.23;66.16;100372.44;5037292;28;20025;-60
2021/09/12 04:41:35;;;;;;;18.02;8.20;;;;;;;13.22;66.37;100368.81;5035887;28;20033;-60
2021/09/12 04:44:00;;;;;;;13.18;7.93;;;;;;;13.23;66.12;100373.22;5037405;28;20036;-60
2021/09/12 04:46:26;;;;;;;19.20;9.35;;;;;;;13.22;66.52;100366.00;5037238;28;20032;-61
2021/09/12 04:48:51;;;;;;;20.55;7.63;;;;;;;13.21;65.90;100363.59;5037051;28;20021;-61
2021/09/12 04:51:16;;;;;;;29.23;9.05;;;;;;;13.22;65.96;100359.53;5037056;28;20022;-60
2021/09/12 04:53:42;;;;;;;28.50;9.18;;;;;;;13.29;65.52;100363.06;5036835;28;20127;-60
2021/09/12 04:56:07;;;;;;;17.95;8.77;;;;;;;13.37;65.75;100371.44;5037090;28;20017;-61
2021/09/12 04:58:32;;;;;;;17.23;8.05;;;;;;;13.42;65.22;100370.97;5037159;28;20360;-61
2021/09/12 05:00:58;;;;;;;21.88;8.98;;;;;;;13.47;65.94;100379.00;5036597;28;20049;-60
2021/09/12 05:03:23;;;;;;;41.05;10.63;;;;;;;13.53;66.10;100380.94;5036827;28;20029;-61
2021/09/12 05:05:49;;;;;;;21.88;9.38;;;;;;;13.60;65.71;100385.66;5036643;28;20187;-60
2021/09/12 05:08:14;;;;;;;23.00;9.93;;;;;;;13.67;65.48;100382.75;5036741;28;20025;-60
2021/09/12 05:10:39;;;;;;;28.25;11.93;;;;;;;13.77;65.01;100389.50;5036800;28;20048;-65
2021/09/12 05:13:05;;;;;;;38.33;15.73;;;;;;;13.88;65.31;100390.94;5036806;28;20029;-60
2021/09/12 05:15:30;;;;;;;33.50;19.15;;;;;;;13.99;65.76;100398.47;5036587;28;20321;-60
2021/09/12 05:17:56;;;;;;;31.83;17.92;;;;;;;14.05;66.48;100394.72;5036733;28;20069;-65
2021/09/12 05:20:22;;;;;;;27.40;15.55;;;;;;;14.14;65.32;100397.00;5036651;28;20048;-65
2021/09/12 05:22:47;;;;;;;21.15;11.88;;;;;;;14.24;65.64;100398.88;5036089;28;20028;-60
2021/09/12 05:25:12;;;;;;;21.42;10.88;;;;;;;14.34;65.64;100392.25;5036718;28;20029;-60
2021/09/12 05:27:38;;;;;;;24.25;11.63;;;;;;;14.45;65.65;100394.94;5034547;28;20036;-60
2021/09/12 05:30:04;;;;;;;21.92;10.98;;;;;;;14.50;65.93;100398.06;5025582;28;20120;-60
2021/09/12 05:32:30;;;;;;;19.02;9.88;;;;;;;14.57;65.36;100390.72;5029306;28;20356;-61
2021/09/12 05:34:55;;;;;;;21.65;9.30;;;;;;;14.67;64.87;100392.56;5023954;28;20041;-60
2021/09/12 05:37:21;;;;;;;16.65;9.15;;;;;;;14.76;63.28;100392.78;5024273;28;20022;-60
2021/09/12 05:39:46;;;;;;;18.77;8.30;;;;;;;14.88;64.09;100399.88;5032417;28;20508;-60
2021/09/12 05:42:11;;;;;;;17.60;8.10;;;;;;;14.99;63.54;100401.25;5025645;28;20321;-60
2021/09/12 05:44:37;;;;;;;16.50;8.65;;;;;;;15.13;62.96;100398.16;5033562;28;20421;-60
2021/09/12 05:47:02;;;;;;;14.15;7.28;;;;;;;15.26;62.90;100392.66;5029762;28;20425;-57
2021/09/12 05:49:28;;;;;;;23.65;8.40;;;;;;;15.38;62.08;100400.50;5030433;28;20038;-61
2021/09/12 05:51:53;;;;;;;26.20;8.35;;;;;;;15.51;62.24;100397.81;5035766;28;20029;-60
2021/09/12 05:54:19;;;;;;;16.38;8.23;;;;;;;15.66;63.37;100404.81;5023631;28;20487;-60
2021/09/12 05:56:44;;;;;;;14.15;8.07;;;;;;;15.82;63.45;100404.06;5029120;28;20056;-60
2021/09/12 05:59:10;;;;;;;16.08;7.78;;;;;;;15.96;62.44;100400.13;5026445;28;20103;-61
2021/09/12 06:01:36;;;;;;;14.85;8.18;;;;;;;16.07;61.51;100398.63;5024885;28;20026;-60
2021/09/12 06:04:01;;;;;;;12.35;8.07;;;;;;;16.21;61.80;100391.84;5028387;28;20381;-60
2021/09/12 06:06:26;;;;;;;13.30;7.97;;;;;;;16.34;61.37;100398.38;5031364;28;20317;-61
2021/09/12 06:08:52;;;;;;;14.40;6.95;;;;;;;16.48;61.24;100402.13;5026599;28;20326;-61
2021/09/12 06:11:17;;;;;;;17.27;7.80;;;;;;;16.63;60.70;100398.47;5035498;28;20013;-60
2021/09/12 06:13:42;;;;;;;14.95;7.90;;;;;;;16.81;60.61;100403.75;5034127;28;20029;-61
2021/09/12 06:16:08;;;;;;;14.05;7.35;;;;;;;16.98;60.68;100402.47;5032882;28;20029;-61
2021/09/12 06:18:34;;;;;;;14.25;7.55;;;;;;;17.15;60.63;100397.53;5034726;28;20433;-60
2021/09/12 06:20:59;;;;;;;16.80;7.95;;;;;;;17.33;60.07;100399.91;5034818;28;20028;-60
2021/09/12 06:23:25;;;;;;;16.88;6.90;;;;;;;17.50;59.65;100392.09;5034617;28;20025;-60
2021/09/12 06:25:51;;;;;;;16.88;7.72;;;;;;;17.66;59.44;100400.56;5034694;28;20556;-61
2021/09/12 06:28:16;;;;;;;13.27;6.88;;;;;;;17.83;58.91;100404.16;5035030;28;20033;-60
2021/09/12 06:30:42;;;;;;;11.38;6.30;;;;;;;18.00;59.68;100408.47;5034919;28;20035;-61
2021/09/12 06:33:08;;;;;;;9.65;6.80;;;;;;;18.18;57.64;100402.25;5034148;28;20047;-58
2021/09/12 06:35:33;;;;;;;15.80;7.00;;;;;;;18.32;56.22;100412.38;5032845;28;20120;-60
2021/09/12 06:37:59;;;;;;;18.95;7.10;;;;;;;18.47;57.20;100407.81;5034137;28;20144;-61
2021/09/12 06:40:30;;;;;;;12.70;6.60;;;;;;;18.63;57.30;100404.88;5028660;28;20029;-58
2021/09/12 06:42:55;;;;;;;10.95;6.40;;;;;;;18.81;56.18;100399.34;5033367;28;20034;-60
2021/09/12 06:45:21;;;;;;;12.30;6.43;;;;;;;18.96;54.91;100407.41;5035325;28;20014;-60
2021/09/12 06:47:46;;;;;;;11.50;5.30;;;;;;;19.10;55.09;100402.00;5033350;28;20025;-60
2021/09/12 06:50:11;;;;;;;12.20;5.85;;;;;;;19.25;54.27;100398.66;5034364;28;20076;-60
2021/09/12 06:52:37;;;;;;;9.95;5.40;;;;;;;19.41;54.42;100413.50;5034629;28;20024;-60
2021/09/12 06:55:02;;;;;;;8.93;5.28;;;;;;;19.60;54.32;100397.34;5035115;28;20017;-61
2021/09/12 06:57:28;;;;;;;9.35;5.95;;;;;;;19.78;53.57;100408.09;5034773;28;20025;-60
2021/09/12 06:59:53;;;;;;;11.90;5.70;;;;;;;19.94;52.65;100402.16;5035173;28;20022;-60
2021/09/12 07:02:18;;;;;;;6.90;4.95;;;;;;;20.11;53.55;100401.94;5034981;28;20345;-60
2021/09/12 07:04:44;;;;;;;13.15;4.65;;;;;;;20.27;52.79;100404.53;5037554;28;20405;-61
2021/09/12 07:07:09;;;;;;;8.52;5.13;;;;;;;20.47;52.09;100412.72;5032951;28;20062;-66
2021/09/12 07:09:34;;;;;;;13.45;4.93;;;;;;;20.64;51.97;100406.28;5037443;28;20401;-60
2021/09/12 07:12:00;;;;;;;7.97;4.85;;;;;;;20.79;50.55;100402.81;5039094;28;20408;-64
2021/09/12 07:14:25;;;;;;;6.80;4.82;;;;;;;20.90;50.63;100406.81;5037637;28;20091;-60
2021/09/12 07:16:50;;;;;;;9.43;5.22;;;;;;;21.04;50.36;100405.38;5038822;28;20029;-64
2021/09/12 07:19:16;;;;;;;9.75;4.47;;;;;;;21.20;51.22;100413.66;5038918;28;20064;-60
2021/09/12 07:21:41;;;;;;;8.38;4.32;;;;;;;21.38;50.41;100418.63;5038579;28;20026;-59
2021/09/12 07:24:06;;;;;;;6.10;4.50;;;;;;;21.53;49.82;100418.78;5038979;28;20029;-64
2021/09/12 07:26:32;;;;;;;9.30;4.40;;;;;;;21.67;48.24;100417.34;5038586;28;20021;-60
2021/09/12 07:28:57;;;;;;;6.93;4.85;;;;;;;21.79;46.55;100425.72;5038745;28;20071;-60
2021/09/12 07:31:22;;;;;;;7.30;4.32;;;;;;;21.92;47.69;100416.19;5038070;28;20156;-60
2021/09/12 07:33:48;;;;;;;9.43;4.55;;;;;;;21.99;46.89;100421.56;5038640;28;20437;-60
2021/09/12 07:36:13;;;;;;;7.28;4.80;;;;;;;22.11;48.49;100423.44;5038716;28;20026;-65
2021/09/12 07:38:38;;;;;;;10.43;4.35;;;;;;;22.22;47.31;100429.47;5038214;28;20075;-60
2021/09/12 07:41:04;;;;;;;10.57;4.93;;;;;;;22.29;45.90;100426.25;5038533;28;20029;-64
2021/09/12 07:43:29;;;;;;;6.25;4.47;;;;;;;22.37;46.41;100424.63;5038569;28;20033;-64
2021/09/12 07:45:55;;;;;;;7.18;4.85;;;;;;;22.45;46.95;100425.84;5037844;28;20028;-60
2021/09/12 07:48:21;;;;;;;11.82;5.10;;;;;;;22.57;48.03;100424.06;5037509;28;20036;-60
2021/09/12 07:50:46;;;;;;;7.60;4.30;;;;;;;22.74;46.92;100425.25;5033035;28;20064;-59
2021/09/12 07:53:12;;;;;;;8.70;4.15;;;;;;;22.88;46.16;100420.91;5036262;28;20028;-64
2021/09/12 07:55:37;;;;;;;11.23;4.78;;;;;;;22.99;46.17;100426.84;5037977;28;20424;-64
2021/09/12 07:58:03;;;;;;;6.93;4.20;;;;;;;23.05;45.28;100427.78;5038236;28;20025;-64
2021/09/12 08:00:28;;;;;;;9.20;4.57;;;;;;;23.17;46.27;100425.16;5037771;28;20026;-64
2021/09/12 08:02:53;;;;;;;7.28;4.03;;;;;;;23.29;46.21;100430.66;5037748;28;20025;-64
2021/09/12 08:05:19;;;;;;;6.47;4.10;;;;;;;23.42;45.71;100424.63;5038046;28;20305;-64
2021/09/12 08:07:44;;;;;;;10.07;4.35;;;;;;;23.54;45.53;100423.56;5037556;28;20064;-64
2021/09/12 08:10:10;;;;;;;12.13;4.50;;;;;;;23.66;46.12;100428.28;5036774;28;20029;-61
2021/09/12 08:12:35;;;;;;;7.30;4.45;;;;;;;23.77;45.84;100424.00;5037726;28;20306;-61
2021/09/12 08:15:01;;;;;;;11.10;4.45;;;;;;;23.86;44.83;100421.88;5036964;28;20025;-58
2021/09/12 08:17:26;;;;;;;10.55;4.43;;;;;;;23.98;44.97;100429.38;5025270;28;20026;-64
2021/09/12 08:19:51;;;;;;;7.68;4.30;;;;;;;24.08;44.56;100426.41;5018775;28;20048;-64
2021/09/12 08:22:17;;;;;;;10.70;4.78;;;;;;;24.17;45.21;100424.22;5017844;28;20030;-64
2021/09/12 08:24:42;;;;;;;14.10;4.75;;;;;;;24.26;44.42;100426.97;5020031;28;20021;-54
2021/09/12 08:27:08;;;;;;;7.03;3.92;;;;;;;24.37;44.22;100425.59;5019539;28;20536;-60
2021/09/12 08:29:33;;;;;;;11.57;4.30;;;;;;;24.39;42.38;100423.84;5019728;28;20030;-64
2021/09/12 08:31:58;;;;;;;7.40;4.72;;;;;;;24.44;42.99;100423.13;5031149;28;20041;-60
2021/09/12 08:34:24;;;;;;;8.40;4.32;;;;;;;24.51;43.27;100416.19;5022444;28;20342;-64
2021/09/12 08:36:50;;;;;;;10.88;4.15;;;;;;;24.58;43.13;100421.50;5018879;28;20057;-58
2021/09/12 08:39:16;;;;;;;11.52;4.43;;;;;;;24.67;43.20;100417.72;5017570;28;20472;-61
2021/09/12 08:41:42;;;;;;;9.38;4.60;;;;;;;24.69;42.32;100418.81;5019789;28;20034;-64
2021/09/12 08:44:08;;;;;;;7.22;4.32;;;;;;;24.76;42.54;100412.63;5037100;28;20029;-64
2021/09/12 08:46:34;;;;;;;7.25;3.97;;;;;;;24.84;43.36;100419.53;5036977;28;20030;-64
2021/09/12 08:48:59;;;;;;;7.60;3.63;;;;;;;24.92;41.80;100414.94;5037120;28;20029;-64
2021/09/12 08:51:24;;;;;;;7.57;3.70;;;;;;;24.98;40.97;100409.28;5037099;28;20022;-64
2021/09/12 08:53:50;;;;;;;5.43;3.55;;;;;;;25.05;40.42;100416.72;5037311;28;20065;-64
2021/09/12 08:56:16;;;;;;;6.82;4.00;;;;;;;25.05;39.34;100413.84;5037217;28;20029;-65
2021/09/12 08:58:41;;;;;;;5.95;3.78;;;;;;;25.08;39.52;100412.84;5036614;28;20084;-61
2021/09/12 09:01:06;;;;;;;13.40;4.00;;;;;;;25.14;40.04;100413.69;5036478;28;20076;-57
2021/09/12 09:03:42;;;;;;;7.15;3.60;;;;;;;25.20;38.96;100411.66;5036439;28;20124;-61
2021/09/12 09:06:17;;;;;;;7.40;4.00;;;;;;;25.25;39.58;100406.00;5036834;28;20025;-61
2021/09/12 09:08:56;;;;;;;8.75;3.75;;;;;;;25.36;38.85;100399.59;5036848;28;20119;-60
2021/09/12 09:11:32;;;;;;;6.40;3.45;;;;;;;25.43;39.06;100404.88;5036792;28;20028;-61
2021/09/12 09:14:16;;;;;;;6.72;3.38;;;;;;;25.57;40.31;100401.13;5036546;28;20029;-64
2021/09/12 09:16:43;;;;;;;6.00;3.58;;;;;;;25.69;39.98;100395.50;5027091;28;20040;-60
2021/09/12 09:19:09;;;;;;;9.07;3.47;;;;;;;25.70;37.26;100394.22;5036641;28;20106;-61
2021/09/12 09:21:43;;;;;;;7.53;3.33;;;;;;;25.70;37.25;100391.34;5036447;28;20368;-60
2021/09/12 09:24:34;;;;;;;14.32;3.38;;;;;;;25.78;36.22;100386.72;5035564;28;20025;-64
2021/09/12 09:27:03;;;;;;;5.82;3.60;;;;;;;25.84;38.12;100397.00;5027887;28;20060;-61
2021/09/12 09:29:36;;;;;;;5.10;3.33;;;;;;;25.95;38.15;100393.41;5027499;28;20418;-60
2021/09/12 09:32:06;;;;;;;7.65;3.45;;;;;;;26.01;37.03;100405.75;5036268;28;20021;-64
2021/09/12 09:34:33;;;;;;;6.70;3.38;;;;;;;26.04;36.20;100393.25;5035924;28;20056;-61
2021/09/12 09:37:15;;;;;;;4.88;2.90;;;;;;;26.03;35.60;100393.75;5029231;28;20365;-60
2021/09/12 09:39:48;;;;;;;15.35;4.10;;;;;;;26.12;36.13;100387.81;5035915;28;20321;-65
2021/09/12 09:42:32;;;;;;;6.63;3.58;;;;;;;26.26;36.76;100386.06;5035825;28;20428;-51
2021/09/12 09:45:11;;;;;;;11.23;3.08;;;;;;;26.37;36.36;100389.09;5035799;28;20041;-64
2021/09/12 09:47:38;;;;;;;7.60;3.47;;;;;;;26.43;33.66;100384.94;5035698;28;20409;-65
2021/09/12 09:50:17;;;;;;;4.07;2.85;;;;;;;26.49;34.13;100387.84;5034812;28;20040;-63
2021/09/12 09:52:48;;;;;;;7.00;2.95;;;;;;;26.59;35.09;100389.25;5036138;28;20302;-64
2021/09/12 09:55:15;;;;;;;9.00;3.53;;;;;;;26.66;34.17;100388.75;5036262;28;20304;-64
2021/09/12 09:57:49;;;;;;;12.05;3.60;;;;;;;26.68;34.33;100383.25;5035832;28;20258;-64
2021/09/12 10:00:15;;;;;;;4.22;3.47;;;;;;;26.72;34.11;100383.81;5036056;28;20021;-64
2021/09/12 10:02:41;;;;;;;4.20;2.35;;;;;;;26.77;34.85;100380.16;5035375;28;20053;-64
2021/09/12 10:05:09;;;;;;;5.05;3.50;;;;;;;26.85;34.92;100371.03;5035984;28;20369;-64
2021/09/12 10:07:36;;;;;;;4.30;3.08;;;;;;;26.89;33.74;100377.34;5033534;28;20031;-60
2021/09/12 10:10:07;;;;;;;4.57;2.58;;;;;;;26.94;33.11;100370.81;5036057;28;20029;-64
2021/09/12 10:12:54;;;;;;;5.07;2.63;;;;;;;26.93;31.47;100378.69;5035416;28;20364;-64
2021/09/12 10:15:32;;;;;;;7.15;2.60;;;;;;;26.98;32.39;100372.13;5034615;28;20048;-60
2021/09/12 10:17:58;;;;;;;8.52;2.70;;;;;;;27.01;32.73;100370.34;5021775;28;20349;-58
2021/09/12 10:20:26;;;;;;;7.30;3.08;;;;;;;27.07;33.20;100369.06;5035463;28;20025;-64
2021/09/12 10:22:55;;;;;;;6.28;3.30;;;;;;;27.14;33.92;100367.78;5034787;28;20036;-64
2021/09/12 10:25:25;;;;;;;6.05;2.75;;;;;;;27.11;31.40;100360.16;5035212;28;20032;-61
2021/09/12 10:28:05;;;;;;;9.40;3.15;;;;;;;27.15;32.57;100360.72;5035574;28;20056;-60
2021/09/12 10:30:43;;;;;;;9.02;3.67;;;;;;;27.18;32.35;100356.78;5034458;28;20103;-64
2021/09/12 10:33:09;;;;;;;4.15;2.95;;;;;;;27.27;33.21;100364.41;5031448;28;20513;-61
2021/09/12 10:35:58;;;;;;;5.50;2.88;;;;;;;27.32;31.36;100354.97;5023656;28;20113;-60
2021/09/12 10:38:32;;;;;;;4.43;2.58;;;;;;;27.38;32.85;100359.44;5022710;28;20736;-61
2021/09/12 10:41:01;;;;;;;3.85;2.45;;;;;;;27.46;31.42;100353.19;5021921;28;20105;-59
2021/09/12 10:43:26;;;;;;;5.63;2.63;;;;;;;27.47;31.10;100354.75;5025040;28;20026;-61
2021/09/12 10:46:01;;;;;;;6.25;2.70;;;;;;;27.54;32.15;100351.34;5018400;28;20030;-64
2021/09/12 10:48:27;;;;;;;5.03;2.85;;;;;;;27.62;31.84;100356.13;5017762;28;20363;-64
2021/09/12 10:50:53;;;;;;;3.70;2.58;;;;;;;27.70;33.40;100356.41;5019106;28;20345;-60
2021/09/12 10:53:44;;;;;;;4.88;2.55;;;;;;;27.77;31.34;100350.09;5024864;28;20022;-61
2021/09/12 10:56:17;;;;;;;4.43;2.63;;;;;;;27.83;31.77;100353.78;5020606;28;20068;-65
2021/09/12 10:58:52;;;;;;;6.70;3.03;;;;;;;27.89;32.56;100342.22;5022414;28;20045;-66
2021/09/12 11:01:27;;;;;;;6.72;3.38;;;;;;;27.90;30.76;100340.91;5030287;28;20022;-61
2021/09/12 11:03:58;;;;;;;7.88;3.50;;;;;;;27.95;31.46;100343.03;5027348;28;20478;-66
2021/09/12 11:06:25;;;;;;;8.07;3.27;;;;;;;28.01;31.21;100335.94;5034144;28;20022;-64
2021/09/12 11:08:50;;;;;;;5.05;2.72;;;;;;;28.06;29.45;100328.56;5034590;28;20266;-65
2021/09/12 11:11:16;;;;;;;5.03;2.80;;;;;;;28.07;30.63;100329.38;5034870;28;20419;-65
2021/09/12 11:13:41;;;;;;;6.35;3.10;;;;;;;28.10;31.36;100331.19;5034795;28;20040;-60
2021/09/12 11:16:12;;;;;;;9.30;3.35;;;;;;;28.15;31.62;100324.63;5034736;28;20030;-59
2021/09/12 11:19:05;;;;;;;3.63;2.80;;;;;;;28.23;30.40;100319.91;5035065;28;20105;-62